Latest Weather Observations for Deniliquin

IDN60801

Issued at 7:32 pm EDT Saturday 13 February 2016 (issued every 30 minutes, with the page automatically refreshed every 10 minutes)

About weather observations | Map of weather stations | Latest weather observations for NSW | Other Formats
Station Details ID: 074258 Name: DENILIQUIN AIRPORT AWS Lat: -35.56 Lon: 144.95 Height: 94.0 m
Data from the previous 72 hours. | See also: Recent months at Deniliquin
Date/Time
EDT
Temp
°C
App
Temp
°C
Dew
Point
Rel
Hum
%
Delta-T
°C
Wind Press
QNH
hPa
Press
MSL
hPa
Rain
since 9 am
mm
Dir
 
Spd
km/h
Gust
km/h
Spd
kts
Gust
kts
13/07:30pm 33.3 27.9 -1.1 11 16.6 SW 17 22 9 12 1006.8 1006.3 0.0
13/07:00pm 34.1 27.5 -0.5 11 17.0 SW 24 32 13 17 1006.7 1006.2 0.0
13/06:30pm 35.6 27.6 -5.5 7 18.7 W 28 37 15 20 1006.5 1006.0 0.0
13/06:00pm 36.3 28.2 -3.2 8 18.8 WSW 30 39 16 21 1006.5 1006.0 0.0
13/05:30pm 36.8 29.1 -2.8 8 19.0 W 28 33 15 18 1006.5 1006.0 0.0
13/05:00pm 37.8 30.8 -3.9 7 19.8 W 24 35 13 19 1006.3 1005.8 0.0
13/04:30pm 38.4 31.8 -3.4 7 20.1 W 22 30 12 16 1006.6 1006.1 0.0
13/04:00pm 38.7 31.5 -5.3 6 20.6 W 24 46 13 25 1006.8 1006.3 0.0
13/03:30pm 39.2 32.8 -4.9 6 20.8 NW 20 37 11 20 1007.1 1006.6 0.0
13/03:00pm 38.7 31.7 -3.2 7 20.3 WNW 24 37 13 20 1007.3 1006.8 0.0
13/02:30pm 38.2 31.2 -3.6 7 20.0 WNW 24 41 13 22 1007.6 1007.1 0.0
13/02:00pm 38.6 32.4 -3.3 7 20.2 NW 20 33 11 18 1008.1 1007.6 0.0
13/01:30pm 37.3 31.2 -2.4 8 19.2 WNW 20 30 11 16 1008.6 1008.1 0.0
13/01:00pm 36.6 31.0 -3.0 8 18.9 WNW 17 28 9 15 1008.9 1008.4 0.0
13/12:30pm 36.4 31.0 -1.5 9 18.5 WNW 17 32 9 17 1009.3 1008.9 0.0
13/12:00pm 36.4 30.6 -0.1 10 18.3 NW 20 32 11 17 1009.8 1009.4 0.0
13/11:30am 35.7 29.1 -0.6 10 17.9 NNW 24 35 13 19 1010.0 1009.6 0.0
13/11:00am 34.3 29.8 4.0 15 16.0 NNW 17 22 9 12 1010.3 1009.9 0.0
13/10:30am 32.9 28.7 3.8 16 15.2 NNW 15 19 8 10 1010.4 1010.0 0.0
13/10:00am 30.8 27.9 4.5 19 13.7 NNW 9 13 5 7 1010.5 1010.1 0.0
13/09:30am 28.4 25.6 5.3 23 12.0 NW 9 13 5 7 1010.6 1010.2 0.0
13/09:00am 26.5 24.2 5.5 26 10.8 NNW 7 9 4 5 1010.5 1010.1 0.0
13/08:30am 23.9 21.8 5.8 31 9.2 NW 6 7 3 4 1010.5 1010.1 0.0
13/08:00am 21.4 19.1 5.7 36 7.9 W 7 13 4 7 1010.2 1009.8 0.0
13/07:30am 19.1 17.3 8.1 49 5.7 NNE 7 11 4 6 1009.9 1009.5 0.0
13/07:00am 18.3 16.6 8.3 52 5.2 NNE 7 11 4 6 1009.8 1009.4 0.0
13/06:30am 18.3 16.7 8.8 54 5.0 NNE 7 9 4 5 1009.7 1009.3 0.0
13/06:00am 17.8 15.5 7.5 51 5.2 NNE 9 9 5 5 1009.4 1009.0 0.0
13/05:30am 17.9 15.6 5.8 45 5.9 ENE 7 7 4 4 1009.4 1009.0 0.0
13/05:00am 18.4 17.6 6.6 46 5.9 CALM 0 0 0 0 1009.5 1009.1 0.0
13/04:30am 17.5 15.6 2.7 37 6.8 SSW 2 6 1 3 1009.5 1009.1 0.0
13/04:00am 19.1 18.2 5.9 42 6.6 CALM 0 6 0 3 1009.5 1009.1 0.0
13/03:30am 20.0 18.0 6.4 41 6.8 NE 6 9 3 5 1009.6 1009.2 0.0
13/03:00am 19.9 18.4 6.6 42 6.7 NE 4 6 2 3 1009.9 1009.5 0.0
13/02:30am 21.1 19.0 6.6 39 7.4 NE 7 9 4 5 1010.0 1009.6 0.0
13/02:00am 21.2 19.9 5.9 37 7.7 ENE 2 7 1 4 1010.2 1009.8 0.0
13/01:30am 21.0 20.2 6.5 39 7.4 CALM 0 6 0 3 1010.3 1009.9 0.0
13/01:00am 21.4 19.2 6.1 37 7.7 E 7 7 4 4 1010.4 1010.0 0.0
13/12:30am 22.1 19.9 5.5 34 8.3 E 6 7 3 4 1010.5 1010.1 0.0
13/12:00am 23.4 21.2 6.2 33 8.8 E 7 7 4 4 1010.6 1010.2 0.0
 
Date/Time
EDT
Temp
°C
App
Temp
°C
Dew
Point
Rel
Hum
%
Delta-T
°C
Wind Press
QNH
hPa
Press
MSL
hPa
Rain
since 9 am
mm
Dir
 
Spd
km/h
Gust
km/h
Spd
kts
Gust
kts
12/11:30pm 23.4 21.3 5.8 32 9.0 E 6 7 3 4 1010.7 1010.3 0.0
12/11:00pm 24.7 22.2 5.0 28 10.0 ESE 7 9 4 5 1010.8 1010.4 0.0
12/10:30pm 25.7 23.0 2.4 22 11.3 SE 6 6 3 3 1011.0 1010.6 0.0
12/10:00pm 26.8 22.7 2.0 20 12.1 SSW 13 13 7 7 1011.0 1010.6 0.0
12/09:30pm 27.1 22.9 1.5 19 12.3 SSW 13 15 7 8 1010.8 1010.4 0.0
12/09:00pm 28.5 24.6 1.1 17 13.3 SSW 11 11 6 6 1010.7 1010.3 0.0
12/08:30pm 30.8 26.4 0.2 14 14.8 SSW 13 17 7 9 1010.6 1010.2 0.0
12/08:00pm 33.2 29.1 0.0 12 16.3 W 11 13 6 7 1010.4 1010.0 0.0
12/07:30pm 34.2 29.9 -1.7 10 17.2 W 11 19 6 10 1010.1 1009.7 0.0
12/07:00pm 34.7 30.8 -1.4 10 17.5 W 9 15 5 8 1010.0 1009.6 0.0
12/06:30pm 35.2 29.5 -1.0 10 17.7 W 19 28 10 15 1010.0 1009.6 0.0
12/06:00pm 35.4 31.2 -0.8 10 17.8 SSW 11 26 6 14 1010.0 1009.6 0.0
12/05:30pm 35.8 31.5 -2.0 9 18.2 WSW 11 22 6 12 1010.1 1009.7 0.0
12/05:00pm 34.8 30.9 -1.3 10 17.5 N 9 19 5 10 1010.3 1009.9 0.0
12/04:30pm 35.3 29.4 -2.3 9 18.0 NW 19 26 10 14 1010.6 1010.2 0.0
12/04:00pm 35.0 29.4 -2.6 9 17.9 WNW 17 28 9 15 1010.8 1010.4 0.0
12/03:30pm 35.7 30.8 1.9 12 17.3 W 17 32 9 17 1011.2 1010.8 0.0
12/03:00pm 35.3 31.1 1.6 12 17.2 W 13 24 7 13 1011.5 1011.1 0.0
12/02:30pm 34.7 31.5 3.3 14 16.4 NNW 9 19 5 10 1011.9 1011.5 0.0
12/02:00pm 33.9 30.4 3.7 15 15.8 WNW 11 20 6 11 1012.4 1012.0 0.0
12/01:30pm 33.3 31.4 6.6 19 14.6 SSE 6 11 3 6 1012.8 1012.4 0.0
12/01:00pm 32.3 29.7 7.9 22 13.5 SSE 11 20 6 11 1013.1 1012.7 0.0
12/12:30pm 31.5 29.2 9.1 25 12.6 SE 11 17 6 9 1013.4 1013.0 0.0
12/12:00pm 30.0 28.3 10.0 29 11.3 SE 9 19 5 10 1013.7 1013.3 0.0
12/11:30am 29.4 28.0 11.0 32 10.6 SSE 9 15 5 8 1013.9 1013.5 0.0
12/11:00am 27.7 27.0 12.1 38 9.1 S 7 13 4 7 1014.2 1013.8 0.0
12/10:30am 25.8 24.5 11.2 40 8.3 ESE 9 15 5 8 1014.4 1014.0 0.0
12/10:00am 24.5 22.9 11.5 44 7.4 SE 11 17 6 9 1014.5 1014.1 0.0
12/09:30am 23.7 21.8 11.7 47 6.8 SE 13 19 7 10 1014.8 1014.4 0.0
12/09:00am 21.7 18.9 11.4 52 5.7 SE 17 20 9 11 1014.7 1014.3 0.0
12/08:30am 20.3 17.5 11.5 57 4.9 SSE 17 22 9 12 1014.5 1014.1 0.0
12/08:00am 18.8 16.0 11.4 62 4.1 SSE 17 20 9 11 1014.4 1014.0 0.0
12/07:30am 17.5 15.5 11.5 68 3.3 SSE 13 19 7 10 1014.0 1013.6 0.0
12/07:00am 15.8 14.0 10.8 72 2.7 S 11 13 6 7 1013.7 1013.3 0.0
12/06:30am 16.4 15.1 11.1 71 2.9 SSW 9 11 5 6 1013.4 1013.0 0.0
12/06:00am 16.7 14.6 11.2 70 3.0 S 13 17 7 9 1012.9 1012.5 0.0
12/05:30am 17.0 15.3 11.3 69 3.1 SSE 11 17 6 9 1012.7 1012.3 0.0
12/05:00am 17.3 15.2 11.3 68 3.3 S 13 17 7 9 1012.6 1012.2 0.0
12/04:30am 17.6 16.3 11.2 66 3.5 SE 9 13 5 7 1012.7 1012.3 0.0
12/04:00am 18.6 16.3 11.9 65 3.7 ENE 15 28 8 15 1013.4 1013.0 0.0
12/03:30am 19.0 17.1 11.8 63 4.0 S 13 15 7 8 1012.8 1012.4 0.0
12/03:00am 19.5 17.5 11.5 60 4.4 S 13 17 7 9 1012.9 1012.5 0.0
12/02:30am 20.4 18.1 11.6 57 4.9 S 15 19 8 10 1013.0 1012.6 0.0
12/02:00am 21.0 17.6 11.3 54 5.4 S 20 28 11 15 1013.0 1012.6 0.0
12/01:30am 21.8 18.6 11.2 51 5.9 S 19 28 10 15 1013.1 1012.7 0.0
12/01:00am 22.6 19.1 11.0 48 6.5 S 20 28 11 15 1013.2 1012.8 0.0
12/12:30am 23.4 19.7 10.1 43 7.3 SSE 20 28 11 15 1013.1 1012.7 0.0
12/12:00am 24.0 20.8 9.9 41 7.8 SSE 17 19 9 10 1013.0 1012.6 0.0
 
Date/Time
EDT
Temp
°C
App
Temp
°C
Dew
Point
Rel
Hum
%
Delta-T
°C
Wind Press
QNH
hPa
Press
MSL
hPa
Rain
since 9 am
mm
Dir
 
Spd
km/h
Gust
km/h
Spd
kts
Gust
kts
11/11:30pm 25.3 21.1 9.6 37 8.6 SSE 22 28 12 15 1013.0 1012.6 0.0
11/11:00pm 26.2 22.1 8.7 33 9.5 SSE 20 26 11 14 1013.0 1012.6 0.0
11/10:30pm 27.2 22.6 8.1 30 10.4 SSE 22 30 12 16 1012.8 1012.4 0.0
11/10:00pm 28.0 23.4 6.7 26 11.3 SSE 20 28 11 15 1012.4 1012.0 0.0
11/09:30pm 26.9 24.0 4.6 24 11.4 ESE 9 11 5 6 1011.8 1011.4 0.0
11/09:00pm 27.8 24.7 3.5 21 12.2 SE 9 11 5 6 1011.5 1011.1 0.0
11/08:30pm 29.4 25.5 3.4 19 13.2 S 13 13 7 7 1011.3 1010.9 0.0
11/08:00pm 32.0 28.0 3.1 16 14.8 SSW 13 17 7 9 1011.0 1010.6 0.0
11/07:30pm 33.1 29.0 2.1 14 15.7 S 13 20 7 11 1010.6 1010.2 0.0
11/07:00pm 34.0 28.1 1.7 13 16.4 SSW 22 28 12 15 1010.4 1010.0 0.0
11/06:30pm 34.0 28.7 1.7 13 16.4 SSW 19 28 10 15 1010.5 1010.1 0.0
11/06:00pm 34.6 29.2 1.1 12 16.9 SW 19 24 10 13 1010.4 1010.0 0.0
11/05:30pm 35.8 30.3 0.8 11 17.7 SW 19 30 10 16 1010.4 1010.0 0.0
11/05:00pm 35.3 31.1 1.6 12 17.2 SW 13 22 7 12 1010.4 1010.0 0.0
11/04:30pm 34.5 30.6 1.0 12 16.8 SSE 11 20 6 11 1010.5 1010.1 0.0
11/04:00pm 35.2 29.7 0.3 11 17.4 WSW 19 32 10 17 1010.8 1010.4 0.0
11/03:30pm 34.8 30.9 3.4 14 16.4 ESE 13 20 7 11 1011.0 1010.6 0.0
11/03:00pm 34.2 30.8 3.9 15 15.9 SSW 11 19 6 10 1011.4 1011.0 0.0
11/02:30pm 34.4 31.6 5.0 16 15.7 WSW 9 20 5 11 1011.7 1011.3 0.0
11/02:00pm 33.2 30.0 4.9 17 15.0 SW 11 15 6 8 1012.0 1011.6 0.0
11/01:30pm 32.7 30.2 4.5 17 14.8 NNE 7 13 4 7 1012.3 1011.9 0.0
11/01:00pm 31.5 28.6 6.5 21 13.5 SSW 11 19 6 10 1012.8 1012.4 0.0
11/12:30pm 30.6 27.5 7.1 23 12.8 SSW 13 24 7 13 1013.3 1012.9 0.0
11/12:00pm 29.1 27.4 8.2 27 11.5 S 7 15 4 8 1013.6 1013.2 0.0
11/11:30am 28.2 26.3 9.0 30 10.6 SSE 9 15 5 8 1013.8 1013.4 0.0
11/11:00am 26.6 23.9 9.0 33 9.7 S 13 19 7 10 1013.9 1013.5 0.0
11/10:30am 25.5 22.8 8.9 35 9.0 SSW 13 17 7 9 1014.0 1013.6 0.0
11/10:00am 24.1 21.7 10.0 41 7.8 S 13 19 7 10 1014.0 1013.6 0.0
11/09:30am 22.6 20.2 10.1 45 6.8 S 13 20 7 11 1014.0 1013.6 0.0
11/09:00am 21.3 18.6 10.2 49 6.0 S 15 20 8 11 1013.8 1013.4 0.0
11/08:30am 19.8 17.1 10.2 54 5.2 SSW 15 20 8 11 1013.7 1013.3 0.0
11/08:00am 17.9 16.4 10.5 62 4.0 SSW 9 13 5 7 1013.5 1013.1 0.0
11/07:30am 15.1 13.6 9.0 67 3.1 SW 7 7 4 4 1013.1 1012.7 0.0
11/07:00am 14.2 12.4 7.9 66 3.1 SW 7 9 4 5 1012.7 1012.3 0.0
11/06:30am 15.9 13.2 9.1 64 3.5 S 13 15 7 8 1012.4 1012.0 0.0
11/06:00am 16.5 14.3 9.4 63 3.7 SSE 11 15 6 8 1012.1 1011.7 0.0
11/05:30am 16.4 16.1 8.6 60 4.0 CALM 0 0 0 0 1011.8 1011.4 0.0
11/05:00am 16.6 15.3 7.8 56 4.5 SSW 4 9 2 5 1011.6 1011.2 0.0
11/04:30am 18.2 15.3 8.2 52 5.2 S 13 17 7 9 1011.3 1010.9 0.0
11/04:00am 19.2 15.9 8.2 49 5.7 S 15 20 8 11 1011.1 1010.7 0.0
11/03:30am 19.8 16.5 7.9 46 6.2 S 15 20 8 11 1011.1 1010.7 0.0
11/03:00am 20.5 16.7 7.5 43 6.7 S 17 24 9 13 1011.2 1010.8 0.0
11/02:30am 21.2 16.0 7.4 41 7.1 S 24 30 13 16 1011.3 1010.9 0.0
11/02:00am 21.7 17.3 7.2 39 7.5 S 20 26 11 14 1011.4 1011.0 0.0
11/01:30am 21.8 17.6 7.6 40 7.4 S 19 22 10 12 1011.7 1011.3 0.0
11/01:00am 22.5 18.4 7.9 39 7.7 S 19 22 10 12 1012.0 1011.6 0.0
11/12:30am 23.1 18.8 8.0 38 8.0 S 20 24 11 13 1012.1 1011.7 0.0
11/12:00am 24.0 19.4 8.0 36 8.5 S 22 28 12 15 1012.1 1011.7 0.0
 
Date/Time
EDT
Temp
°C
App
Temp
°C
Dew
Point
Rel
Hum
%
Delta-T
°C
Wind Press
QNH
hPa
Press
MSL
hPa
Rain
since 9 am
mm
Dir
 
Spd
km/h
Gust
km/h
Spd
kts
Gust
kts
10/11:30pm 24.2 20.2 6.5 32 9.2 S 17 22 9 12 1012.3 1011.9 0.0
10/11:00pm 25.2 20.6 5.4 28 10.1 S 19 22 10 12 1012.4 1012.0 0.0
10/10:30pm 25.2 20.6 3.8 25 10.6 SSE 17 20 9 11 1012.3 1011.9 0.0
10/10:00pm 25.1 20.8 1.3 21 11.3 SSE 13 15 7 8 1012.0 1011.6 0.0
10/09:30pm 25.3 21.2 -3.2 15 12.4 S 9 17 5 9 1011.7 1011.3 0.0
10/09:00pm 28.2 24.6 -1.8 14 13.8 S 7 7 4 4 1011.4 1011.0 0.0
10/08:30pm 29.3 24.8 -3.0 12 14.6 S 11 15 6 8 1011.2 1010.8 0.0
10/08:00pm 31.9 27.0 -3.5 10 16.2 S 13 19 7 10 1010.9 1010.5 0.0

Other Formats:

Comma delimited format used in spreadsheet applications
http://www.bom.gov.au/fwo/IDN60801/IDN60801.95869.axf

JavaScript Object Notation format (JSON) in row-major order
http://www.bom.gov.au/fwo/IDN60801/IDN60801.95869.json